sensor_id;sensor_type;location;lat;lon;timestamp;P1;durP1;ratioP1;P2;durP2;ratioP2
13067;SDS011;6600;51.362;6.686;2022-09-01T00:01:28;2.53;;;1.30;;
13067;SDS011;6600;51.362;6.686;2022-09-01T00:03:55;1.70;;;1.40;;
13067;SDS011;6600;51.362;6.686;2022-09-01T00:06:27;2.10;;;1.37;;
13067;SDS011;6600;51.362;6.686;2022-09-01T00:08:55;1.67;;;1.37;;
13067;SDS011;6600;51.362;6.686;2022-09-01T00:11:23;1.70;;;1.33;;
13067;SDS011;6600;51.362;6.686;2022-09-01T00:13:52;3.73;;;2.80;;
13067;SDS011;6600;51.362;6.686;2022-09-01T00:16:19;3.53;;;2.50;;
13067;SDS011;6600;51.362;6.686;2022-09-01T00:18:46;5.70;;;1.70;;
13067;SDS011;6600;51.362;6.686;2022-09-01T00:21:14;2.97;;;1.90;;
13067;SDS011;6600;51.362;6.686;2022-09-01T00:23:41;5.00;;;1.67;;
13067;SDS011;6600;51.362;6.686;2022-09-01T00:26:06;1.97;;;1.50;;
13067;SDS011;6600;51.362;6.686;2022-09-01T00:28:33;2.00;;;1.60;;
13067;SDS011;6600;51.362;6.686;2022-09-01T00:30:59;5.17;;;2.20;;
13067;SDS011;6600;51.362;6.686;2022-09-01T00:33:25;3.53;;;2.07;;
13067;SDS011;6600;51.362;6.686;2022-09-01T00:35:50;2.77;;;2.20;;
13067;SDS011;6600;51.362;6.686;2022-09-01T00:38:16;5.80;;;2.43;;
13067;SDS011;6600;51.362;6.686;2022-09-01T00:40:41;2.60;;;2.13;;
13067;SDS011;6600;51.362;6.686;2022-09-01T00:43:11;5.20;;;2.33;;
13067;SDS011;6600;51.362;6.686;2022-09-01T00:45:47;3.93;;;2.23;;
13067;SDS011;6600;51.362;6.686;2022-09-01T00:48:15;1.20;;;1.10;;
13067;SDS011;6600;51.362;6.686;2022-09-01T00:50:42;0.60;;;0.57;;
13067;SDS011;6600;51.362;6.686;2022-09-01T00:53:08;0.43;;;0.43;;
13067;SDS011;6600;51.362;6.686;2022-09-01T00:55:34;0.60;;;0.60;;
13067;SDS011;6600;51.362;6.686;2022-09-01T00:58:02;1.73;;;0.77;;
13067;SDS011;6600;51.362;6.686;2022-09-01T01:00:31;0.77;;;0.77;;
13067;SDS011;6600;51.362;6.686;2022-09-01T01:03:02;0.53;;;0.53;;
13067;SDS011;6600;51.362;6.686;2022-09-01T01:05:31;1.33;;;0.80;;
13067;SDS011;6600;51.362;6.686;2022-09-01T01:07:59;1.07;;;0.70;;
13067;SDS011;6600;51.362;6.686;2022-09-01T01:10:26;2.83;;;1.20;;
13067;SDS011;6600;51.362;6.686;2022-09-01T01:12:57;2.57;;;2.00;;
13067;SDS011;6600;51.362;6.686;2022-09-01T01:15:26;5.53;;;1.87;;
13067;SDS011;6600;51.362;6.686;2022-09-01T01:17:52;3.60;;;2.00;;
13067;SDS011;6600;51.362;6.686;2022-09-01T01:20:18;2.20;;;2.00;;
13067;SDS011;6600;51.362;6.686;2022-09-01T01:23:09;4.27;;;1.90;;
13067;SDS011;6600;51.362;6.686;2022-09-01T01:25:52;2.63;;;1.80;;
13067;SDS011;6600;51.362;6.686;2022-09-01T01:30:54;9.03;;;4.93;;
13067;SDS011;6600;51.362;6.686;2022-09-01T01:33:26;7.10;;;3.70;;
13067;SDS011;6600;51.362;6.686;2022-09-01T01:35:54;6.03;;;3.13;;
13067;SDS011;6600;51.362;6.686;2022-09-01T01:38:21;6.53;;;2.83;;
13067;SDS011;6600;51.362;6.686;2022-09-01T01:40:47;2.47;;;1.77;;
13067;SDS011;6600;51.362;6.686;2022-09-01T01:43:13;1.43;;;1.20;;
13067;SDS011;6600;51.362;6.686;2022-09-01T01:45:50;2.00;;;1.30;;
13067;SDS011;6600;51.362;6.686;2022-09-01T01:48:17;1.17;;;0.90;;
13067;SDS011;6600;51.362;6.686;2022-09-01T01:50:49;2.77;;;1.10;;
13067;SDS011;6600;51.362;6.686;2022-09-01T01:53:17;1.30;;;1.00;;
13067;SDS011;6600;51.362;6.686;2022-09-01T01:55:43;2.00;;;1.30;;
13067;SDS011;6600;51.362;6.686;2022-09-01T01:58:10;1.57;;;1.30;;
13067;SDS011;6600;51.362;6.686;2022-09-01T02:00:36;1.50;;;1.10;;
13067;SDS011;6600;51.362;6.686;2022-09-01T02:03:02;1.50;;;1.40;;
13067;SDS011;6600;51.362;6.686;2022-09-01T02:05:34;1.63;;;1.50;;
13067;SDS011;6600;51.362;6.686;2022-09-01T02:08:09;3.50;;;1.70;;
13067;SDS011;6600;51.362;6.686;2022-09-01T02:10:38;3.87;;;1.90;;
13067;SDS011;6600;51.362;6.686;2022-09-01T02:13:06;2.37;;;1.83;;
13067;SDS011;6600;51.362;6.686;2022-09-01T02:15:36;4.07;;;2.30;;
13067;SDS011;6600;51.362;6.686;2022-09-01T02:18:09;2.47;;;1.80;;
13067;SDS011;6600;51.362;6.686;2022-09-01T02:20:37;2.37;;;1.70;;
13067;SDS011;6600;51.362;6.686;2022-09-01T02:23:02;2.70;;;1.50;;
13067;SDS011;6600;51.362;6.686;2022-09-01T02:25:33;3.33;;;1.00;;
13067;SDS011;6600;51.362;6.686;2022-09-01T02:27:59;0.93;;;0.87;;
13067;SDS011;6600;51.362;6.686;2022-09-01T02:30:27;1.83;;;0.70;;
13067;SDS011;6600;51.362;6.686;2022-09-01T02:32:53;0.40;;;0.40;;
13067;SDS011;6600;51.362;6.686;2022-09-01T02:35:18;0.70;;;0.70;;
13067;SDS011;6600;51.362;6.686;2022-09-01T02:37:43;0.43;;;0.43;;
13067;SDS011;6600;51.362;6.686;2022-09-01T02:40:10;0.90;;;0.90;;
13067;SDS011;6600;51.362;6.686;2022-09-01T02:42:36;0.60;;;0.60;;
13067;SDS011;6600;51.362;6.686;2022-09-01T02:45:06;0.83;;;0.50;;
13067;SDS011;6600;51.362;6.686;2022-09-01T02:47:36;1.73;;;0.80;;
13067;SDS011;6600;51.362;6.686;2022-09-01T02:50:05;1.57;;;0.70;;
13067;SDS011;6600;51.362;6.686;2022-09-01T02:52:30;0.63;;;0.63;;
13067;SDS011;6600;51.362;6.686;2022-09-01T02:55:01;0.40;;;0.40;;
13067;SDS011;6600;51.362;6.686;2022-09-01T02:57:27;1.87;;;0.60;;
13067;SDS011;6600;51.362;6.686;2022-09-01T02:59:53;1.23;;;0.70;;
13067;SDS011;6600;51.362;6.686;2022-09-01T03:02:22;1.07;;;0.70;;
13067;SDS011;6600;51.362;6.686;2022-09-01T03:04:53;0.50;;;0.50;;
13067;SDS011;6600;51.362;6.686;2022-09-01T03:07:20;0.70;;;0.70;;
13067;SDS011;6600;51.362;6.686;2022-09-01T03:09:50;1.03;;;0.70;;
13067;SDS011;6600;51.362;6.686;2022-09-01T03:12:16;0.60;;;0.60;;
13067;SDS011;6600;51.362;6.686;2022-09-01T03:14:43;0.60;;;0.60;;
13067;SDS011;6600;51.362;6.686;2022-09-01T03:17:09;0.60;;;0.60;;
13067;SDS011;6600;51.362;6.686;2022-09-01T03:19:35;0.87;;;0.70;;
13067;SDS011;6600;51.362;6.686;2022-09-01T03:22:08;0.60;;;0.60;;
13067;SDS011;6600;51.362;6.686;2022-09-01T03:24:34;0.60;;;0.60;;
13067;SDS011;6600;51.362;6.686;2022-09-01T03:27:00;0.70;;;0.70;;
13067;SDS011;6600;51.362;6.686;2022-09-01T03:29:25;0.53;;;0.53;;
13067;SDS011;6600;51.362;6.686;2022-09-01T03:31:51;0.80;;;0.80;;
13067;SDS011;6600;51.362;6.686;2022-09-01T03:34:16;0.67;;;0.67;;
13067;SDS011;6600;51.362;6.686;2022-09-01T03:36:47;0.50;;;0.50;;
13067;SDS011;6600;51.362;6.686;2022-09-01T03:39:18;1.27;;;1.00;;
13067;SDS011;6600;51.362;6.686;2022-09-01T03:41:44;1.07;;;0.93;;
13067;SDS011;6600;51.362;6.686;2022-09-01T03:44:10;0.83;;;0.83;;
13067;SDS011;6600;51.362;6.686;2022-09-01T03:46:39;1.07;;;0.60;;
13067;SDS011;6600;51.362;6.686;2022-09-01T03:49:04;0.97;;;0.80;;
13067;SDS011;6600;51.362;6.686;2022-09-01T03:51:39;0.80;;;0.80;;
13067;SDS011;6600;51.362;6.686;2022-09-01T03:54:06;1.27;;;1.00;;
13067;SDS011;6600;51.362;6.686;2022-09-01T03:56:32;1.17;;;0.63;;
13067;SDS011;6600;51.362;6.686;2022-09-01T03:58:58;2.93;;;1.20;;
13067;SDS011;6600;51.362;6.686;2022-09-01T04:01:28;1.70;;;0.80;;
13067;SDS011;6600;51.362;6.686;2022-09-01T04:04:02;0.73;;;0.60;;
13067;SDS011;6600;51.362;6.686;2022-09-01T04:06:29;1.70;;;0.80;;
13067;SDS011;6600;51.362;6.686;2022-09-01T04:08:54;0.67;;;0.60;;
13067;SDS011;6600;51.362;6.686;2022-09-01T04:11:26;1.53;;;0.90;;
13067;SDS011;6600;51.362;6.686;2022-09-01T04:13:53;0.77;;;0.60;;
13067;SDS011;6600;51.362;6.686;2022-09-01T04:19:07;1.53;;;0.80;;
13067;SDS011;6600;51.362;6.686;2022-09-01T04:21:48;0.60;;;0.60;;
13067;SDS011;6600;51.362;6.686;2022-09-01T04:24:14;0.90;;;0.60;;
13067;SDS011;6600;51.362;6.686;2022-09-01T04:26:40;0.77;;;0.70;;
13067;SDS011;6600;51.362;6.686;2022-09-01T04:29:06;0.57;;;0.57;;
13067;SDS011;6600;51.362;6.686;2022-09-01T04:31:33;2.13;;;1.37;;
13067;SDS011;6600;51.362;6.686;2022-09-01T04:34:01;3.90;;;2.13;;
13067;SDS011;6600;51.362;6.686;2022-09-01T04:36:27;2.87;;;1.90;;
13067;SDS011;6600;51.362;6.686;2022-09-01T04:38:58;4.13;;;1.60;;
13067;SDS011;6600;51.362;6.686;2022-09-01T04:41:26;1.80;;;1.27;;
13067;SDS011;6600;51.362;6.686;2022-09-01T04:43:58;4.00;;;1.33;;
13067;SDS011;6600;51.362;6.686;2022-09-01T04:46:28;3.03;;;1.50;;
13067;SDS011;6600;51.362;6.686;2022-09-01T04:48:57;2.57;;;1.30;;
13067;SDS011;6600;51.362;6.686;2022-09-01T04:51:23;1.03;;;0.97;;
13067;SDS011;6600;51.362;6.686;2022-09-01T04:53:53;0.80;;;0.77;;
13067;SDS011;6600;51.362;6.686;2022-09-01T04:56:20;3.07;;;1.60;;
13067;SDS011;6600;51.362;6.686;2022-09-01T04:58:47;3.77;;;1.40;;
13067;SDS011;6600;51.362;6.686;2022-09-01T05:01:21;2.47;;;1.10;;
13067;SDS011;6600;51.362;6.686;2022-09-01T05:03:48;0.80;;;0.80;;
13067;SDS011;6600;51.362;6.686;2022-09-01T05:06:26;0.80;;;0.80;;
13067;SDS011;6600;51.362;6.686;2022-09-01T05:08:52;0.83;;;0.70;;
13067;SDS011;6600;51.362;6.686;2022-09-01T05:11:20;0.80;;;0.80;;
13067;SDS011;6600;51.362;6.686;2022-09-01T05:13:48;0.63;;;0.60;;
13067;SDS011;6600;51.362;6.686;2022-09-01T05:16:18;1.00;;;0.80;;
13067;SDS011;6600;51.362;6.686;2022-09-01T05:18:46;3.00;;;1.43;;
13067;SDS011;6600;51.362;6.686;2022-09-01T05:21:14;1.73;;;1.03;;
13067;SDS011;6600;51.362;6.686;2022-09-01T05:23:42;1.40;;;1.10;;
13067;SDS011;6600;51.362;6.686;2022-09-01T05:26:12;1.80;;;1.03;;
13067;SDS011;6600;51.362;6.686;2022-09-01T05:28:46;2.10;;;1.57;;
13067;SDS011;6600;51.362;6.686;2022-09-01T05:31:14;1.77;;;1.30;;
13067;SDS011;6600;51.362;6.686;2022-09-01T05:33:43;1.60;;;1.13;;
13067;SDS011;6600;51.362;6.686;2022-09-01T05:36:12;1.27;;;1.00;;
13067;SDS011;6600;51.362;6.686;2022-09-01T05:38:39;1.53;;;0.80;;
13067;SDS011;6600;51.362;6.686;2022-09-01T05:41:06;1.60;;;0.87;;
13067;SDS011;6600;51.362;6.686;2022-09-01T05:43:34;0.93;;;0.57;;
13067;SDS011;6600;51.362;6.686;2022-09-01T05:46:01;0.70;;;0.70;;
13067;SDS011;6600;51.362;6.686;2022-09-01T05:48:30;0.50;;;0.50;;
13067;SDS011;6600;51.362;6.686;2022-09-01T05:50:58;3.30;;;0.70;;
13067;SDS011;6600;51.362;6.686;2022-09-01T05:53:27;3.30;;;1.00;;
13067;SDS011;6600;51.362;6.686;2022-09-01T05:55:54;2.00;;;0.80;;
13067;SDS011;6600;51.362;6.686;2022-09-01T05:58:22;1.20;;;1.10;;
13067;SDS011;6600;51.362;6.686;2022-09-01T06:00:50;1.33;;;1.10;;
13067;SDS011;6600;51.362;6.686;2022-09-01T06:03:18;1.73;;;1.47;;
13067;SDS011;6600;51.362;6.686;2022-09-01T06:05:44;4.33;;;1.47;;
13067;SDS011;6600;51.362;6.686;2022-09-01T06:08:17;2.90;;;1.60;;
13067;SDS011;6600;51.362;6.686;2022-09-01T06:10:43;2.07;;;1.00;;
13067;SDS011;6600;51.362;6.686;2022-09-01T06:13:09;1.13;;;1.00;;
13067;SDS011;6600;51.362;6.686;2022-09-01T06:15:35;3.50;;;1.73;;
13067;SDS011;6600;51.362;6.686;2022-09-01T06:18:03;7.27;;;3.97;;
13067;SDS011;6600;51.362;6.686;2022-09-01T06:20:30;2.17;;;1.57;;
13067;SDS011;6600;51.362;6.686;2022-09-01T06:22:55;2.13;;;1.60;;
13067;SDS011;6600;51.362;6.686;2022-09-01T06:25:21;4.00;;;2.07;;
13067;SDS011;6600;51.362;6.686;2022-09-01T06:27:46;1.13;;;1.03;;
13067;SDS011;6600;51.362;6.686;2022-09-01T06:30:13;2.87;;;1.10;;
13067;SDS011;6600;51.362;6.686;2022-09-01T06:32:42;1.30;;;1.00;;
13067;SDS011;6600;51.362;6.686;2022-09-01T06:35:11;1.27;;;0.80;;
13067;SDS011;6600;51.362;6.686;2022-09-01T06:37:40;0.90;;;0.90;;
13067;SDS011;6600;51.362;6.686;2022-09-01T06:40:08;0.83;;;0.83;;
13067;SDS011;6600;51.362;6.686;2022-09-01T06:42:41;0.50;;;0.50;;
13067;SDS011;6600;51.362;6.686;2022-09-01T06:45:15;0.43;;;0.43;;
13067;SDS011;6600;51.362;6.686;2022-09-01T06:47:42;0.90;;;0.80;;
13067;SDS011;6600;51.362;6.686;2022-09-01T06:50:17;0.90;;;0.80;;
13067;SDS011;6600;51.362;6.686;2022-09-01T06:52:45;0.87;;;0.60;;
13067;SDS011;6600;51.362;6.686;2022-09-01T06:55:25;5.13;;;1.90;;
13067;SDS011;6600;51.362;6.686;2022-09-01T06:57:56;1.20;;;1.10;;
13067;SDS011;6600;51.362;6.686;2022-09-01T07:00:22;1.57;;;1.00;;
13067;SDS011;6600;51.362;6.686;2022-09-01T07:02:54;1.97;;;1.30;;
13067;SDS011;6600;51.362;6.686;2022-09-01T07:05:20;2.97;;;1.03;;
13067;SDS011;6600;51.362;6.686;2022-09-01T07:07:46;0.70;;;0.70;;
13067;SDS011;6600;51.362;6.686;2022-09-01T07:10:16;1.93;;;1.37;;
13067;SDS011;6600;51.362;6.686;2022-09-01T07:12:44;1.87;;;1.67;;
13067;SDS011;6600;51.362;6.686;2022-09-01T07:15:10;1.97;;;1.43;;
13067;SDS011;6600;51.362;6.686;2022-09-01T07:17:39;1.73;;;1.40;;
13067;SDS011;6600;51.362;6.686;2022-09-01T07:20:06;5.57;;;1.20;;
13067;SDS011;6600;51.362;6.686;2022-09-01T07:22:33;1.37;;;1.00;;
13067;SDS011;6600;51.362;6.686;2022-09-01T07:24:58;3.80;;;2.10;;
13067;SDS011;6600;51.362;6.686;2022-09-01T07:27:23;8.10;;;2.43;;
13067;SDS011;6600;51.362;6.686;2022-09-01T07:29:51;4.50;;;2.03;;
13067;SDS011;6600;51.362;6.686;2022-09-01T07:32:21;2.90;;;1.70;;
13067;SDS011;6600;51.362;6.686;2022-09-01T07:34:47;1.87;;;1.27;;
13067;SDS011;6600;51.362;6.686;2022-09-01T07:37:13;1.30;;;0.93;;
13067;SDS011;6600;51.362;6.686;2022-09-01T07:39:38;0.67;;;0.67;;
13067;SDS011;6600;51.362;6.686;2022-09-01T07:42:09;1.30;;;0.80;;
13067;SDS011;6600;51.362;6.686;2022-09-01T07:44:36;0.67;;;0.67;;
13067;SDS011;6600;51.362;6.686;2022-09-01T07:47:03;1.60;;;0.50;;
13067;SDS011;6600;51.362;6.686;2022-09-01T07:49:33;0.50;;;0.50;;
13067;SDS011;6600;51.362;6.686;2022-09-01T07:52:01;0.73;;;0.70;;
13067;SDS011;6600;51.362;6.686;2022-09-01T07:54:27;1.20;;;0.93;;
13067;SDS011;6600;51.362;6.686;2022-09-01T07:56:54;0.83;;;0.77;;
13067;SDS011;6600;51.362;6.686;2022-09-01T07:59:19;0.90;;;0.60;;
13067;SDS011;6600;51.362;6.686;2022-09-01T08:01:45;5.07;;;1.57;;
13067;SDS011;6600;51.362;6.686;2022-09-01T08:04:11;1.07;;;0.83;;
13067;SDS011;6600;51.362;6.686;2022-09-01T08:06:37;0.90;;;0.60;;
13067;SDS011;6600;51.362;6.686;2022-09-01T08:09:02;0.70;;;0.70;;
13067;SDS011;6600;51.362;6.686;2022-09-01T08:11:31;0.50;;;0.50;;
13067;SDS011;6600;51.362;6.686;2022-09-01T08:13:57;1.43;;;0.53;;
13067;SDS011;6600;51.362;6.686;2022-09-01T08:16:27;1.23;;;0.50;;
13067;SDS011;6600;51.362;6.686;2022-09-01T08:18:54;0.80;;;0.80;;
13067;SDS011;6600;51.362;6.686;2022-09-01T08:21:21;1.90;;;0.70;;
13067;SDS011;6600;51.362;6.686;2022-09-01T08:23:48;0.97;;;0.70;;
13067;SDS011;6600;51.362;6.686;2022-09-01T08:26:16;0.80;;;0.50;;
13067;SDS011;6600;51.362;6.686;2022-09-01T08:28:42;0.53;;;0.50;;
13067;SDS011;6600;51.362;6.686;2022-09-01T08:31:09;0.57;;;0.40;;
13067;SDS011;6600;51.362;6.686;2022-09-01T08:33:37;2.03;;;0.80;;
13067;SDS011;6600;51.362;6.686;2022-09-01T08:36:03;1.07;;;0.50;;
13067;SDS011;6600;51.362;6.686;2022-09-01T08:38:31;0.50;;;0.50;;
13067;SDS011;6600;51.362;6.686;2022-09-01T08:40:58;0.73;;;0.50;;
13067;SDS011;6600;51.362;6.686;2022-09-01T08:48:53;0.70;;;0.70;;
13067;SDS011;6600;51.362;6.686;2022-09-01T08:51:59;0.80;;;0.80;;
13067;SDS011;6600;51.362;6.686;2022-09-01T08:57:17;0.73;;;0.70;;
13067;SDS011;6600;51.362;6.686;2022-09-01T08:59:46;0.53;;;0.53;;
13067;SDS011;6600;51.362;6.686;2022-09-01T09:12:59;1.53;;;1.03;;
13067;SDS011;6600;51.362;6.686;2022-09-01T09:15:54;0.77;;;0.77;;
13067;SDS011;6600;51.362;6.686;2022-09-01T09:21:33;2.37;;;1.30;;
13067;SDS011;6600;51.362;6.686;2022-09-01T09:26:55;3.03;;;1.13;;
13067;SDS011;6600;51.362;6.686;2022-09-01T09:29:26;1.00;;;0.77;;
13067;SDS011;6600;51.362;6.686;2022-09-01T09:32:04;0.50;;;0.50;;
13067;SDS011;6600;51.362;6.686;2022-09-01T09:34:33;0.77;;;0.70;;
13067;SDS011;6600;51.362;6.686;2022-09-01T09:37:22;2.73;;;1.37;;
13067;SDS011;6600;51.362;6.686;2022-09-01T09:40:03;2.70;;;1.20;;
13067;SDS011;6600;51.362;6.686;2022-09-01T09:42:38;2.47;;;0.93;;
13067;SDS011;6600;51.362;6.686;2022-09-01T09:45:52;0.63;;;0.60;;
13067;SDS011;6600;51.362;6.686;2022-09-01T09:47:54;0.70;;;0.70;;
13067;SDS011;6600;51.362;6.686;2022-09-01T09:50:26;0.63;;;0.63;;
13067;SDS011;6600;51.362;6.686;2022-09-01T09:55:36;0.50;;;0.50;;
13067;SDS011;6600;51.362;6.686;2022-09-01T09:58:27;0.30;;;0.30;;
13067;SDS011;6600;51.362;6.686;2022-09-01T10:01:00;1.10;;;0.40;;
13067;SDS011;6600;51.362;6.686;2022-09-01T10:03:34;0.50;;;0.50;;
13067;SDS011;6600;51.362;6.686;2022-09-01T10:06:35;1.07;;;0.97;;
13067;SDS011;6600;51.362;6.686;2022-09-01T10:09:04;0.80;;;0.77;;
13067;SDS011;6600;51.362;6.686;2022-09-01T10:14:04;1.60;;;0.80;;
13067;SDS011;6600;51.362;6.686;2022-09-01T10:16:31;1.30;;;1.20;;
13067;SDS011;6600;51.362;6.686;2022-09-01T10:19:02;0.50;;;0.50;;
13067;SDS011;6600;51.362;6.686;2022-09-01T10:21:31;0.57;;;0.57;;
13067;SDS011;6600;51.362;6.686;2022-09-01T10:27:01;0.60;;;0.40;;
13067;SDS011;6600;51.362;6.686;2022-09-01T10:32:01;1.17;;;0.37;;
13067;SDS011;6600;51.362;6.686;2022-09-01T10:34:32;1.17;;;0.40;;
13067;SDS011;6600;51.362;6.686;2022-09-01T10:37:01;0.37;;;0.37;;
13067;SDS011;6600;51.362;6.686;2022-09-01T10:39:27;0.40;;;0.40;;
13067;SDS011;6600;51.362;6.686;2022-09-01T10:42:00;0.70;;;0.50;;
13067;SDS011;6600;51.362;6.686;2022-09-01T10:44:36;0.40;;;0.40;;
13067;SDS011;6600;51.362;6.686;2022-09-01T10:47:26;0.57;;;0.53;;
13067;SDS011;6600;51.362;6.686;2022-09-01T10:49:57;0.60;;;0.60;;
13067;SDS011;6600;51.362;6.686;2022-09-01T10:53:11;0.57;;;0.57;;
13067;SDS011;6600;51.362;6.686;2022-09-01T10:55:18;0.40;;;0.40;;
13067;SDS011;6600;51.362;6.686;2022-09-01T10:57:52;0.87;;;0.50;;
13067;SDS011;6600;51.362;6.686;2022-09-01T11:08:21;2.00;;;0.83;;
13067;SDS011;6600;51.362;6.686;2022-09-01T11:10:51;1.87;;;0.87;;
13067;SDS011;6600;51.362;6.686;2022-09-01T11:13:35;2.03;;;0.80;;
13067;SDS011;6600;51.362;6.686;2022-09-01T11:22:09;0.70;;;0.70;;
13067;SDS011;6600;51.362;6.686;2022-09-01T11:24:44;2.00;;;0.80;;
13067;SDS011;6600;51.362;6.686;2022-09-01T11:27:55;0.57;;;0.57;;
13067;SDS011;6600;51.362;6.686;2022-09-01T11:30:16;1.80;;;0.50;;
13067;SDS011;6600;51.362;6.686;2022-09-01T11:32:42;1.13;;;0.67;;
13067;SDS011;6600;51.362;6.686;2022-09-01T11:35:16;0.77;;;0.70;;
13067;SDS011;6600;51.362;6.686;2022-09-01T11:37:47;0.60;;;0.60;;
13067;SDS011;6600;51.362;6.686;2022-09-01T11:40:18;1.13;;;0.80;;
13067;SDS011;6600;51.362;6.686;2022-09-01T11:42:51;0.70;;;0.70;;
13067;SDS011;6600;51.362;6.686;2022-09-01T11:45:25;2.10;;;0.60;;
13067;SDS011;6600;51.362;6.686;2022-09-01T11:48:00;0.80;;;0.70;;
13067;SDS011;6600;51.362;6.686;2022-09-01T11:50:37;0.57;;;0.57;;
13067;SDS011;6600;51.362;6.686;2022-09-01T11:53:09;0.50;;;0.50;;
13067;SDS011;6600;51.362;6.686;2022-09-01T11:55:41;1.37;;;0.80;;
13067;SDS011;6600;51.362;6.686;2022-09-01T11:58:12;0.60;;;0.60;;
13067;SDS011;6600;51.362;6.686;2022-09-01T12:00:53;1.43;;;0.90;;
13067;SDS011;6600;51.362;6.686;2022-09-01T12:03:22;1.23;;;0.80;;
13067;SDS011;6600;51.362;6.686;2022-09-01T12:05:56;0.67;;;0.60;;
13067;SDS011;6600;51.362;6.686;2022-09-01T12:08:26;0.93;;;0.93;;
13067;SDS011;6600;51.362;6.686;2022-09-01T12:13:42;0.67;;;0.67;;
13067;SDS011;6600;51.362;6.686;2022-09-01T12:16:23;3.43;;;2.50;;
13067;SDS011;6600;51.362;6.686;2022-09-01T12:18:49;7.47;;;3.53;;
13067;SDS011;6600;51.362;6.686;2022-09-01T12:21:39;1.77;;;1.37;;
13067;SDS011;6600;51.362;6.686;2022-09-01T12:26:42;1.20;;;1.10;;
13067;SDS011;6600;51.362;6.686;2022-09-01T12:29:09;0.63;;;0.63;;
13067;SDS011;6600;51.362;6.686;2022-09-01T12:31:38;0.90;;;0.80;;
13067;SDS011;6600;51.362;6.686;2022-09-01T12:34:21;1.07;;;1.07;;
13067;SDS011;6600;51.362;6.686;2022-09-01T12:39:49;0.57;;;0.57;;
13067;SDS011;6600;51.362;6.686;2022-09-01T12:53:12;0.73;;;0.73;;
13067;SDS011;6600;51.362;6.686;2022-09-01T12:55:37;3.50;;;1.37;;
13067;SDS011;6600;51.362;6.686;2022-09-01T12:58:06;1.90;;;1.33;;
13067;SDS011;6600;51.362;6.686;2022-09-01T13:00:51;1.27;;;1.17;;
13067;SDS011;6600;51.362;6.686;2022-09-01T13:03:20;1.03;;;0.90;;
13067;SDS011;6600;51.362;6.686;2022-09-01T13:05:51;1.83;;;0.90;;
13067;SDS011;6600;51.362;6.686;2022-09-01T13:08:21;1.00;;;0.80;;
13067;SDS011;6600;51.362;6.686;2022-09-01T13:10:53;0.73;;;0.73;;
13067;SDS011;6600;51.362;6.686;2022-09-01T13:13:25;1.00;;;0.93;;
13067;SDS011;6600;51.362;6.686;2022-09-01T13:15:53;1.17;;;1.07;;
13067;SDS011;6600;51.362;6.686;2022-09-01T13:18:21;1.00;;;0.90;;
13067;SDS011;6600;51.362;6.686;2022-09-01T13:20:48;0.73;;;0.73;;
13067;SDS011;6600;51.362;6.686;2022-09-01T13:23:14;0.70;;;0.70;;
13067;SDS011;6600;51.362;6.686;2022-09-01T13:25:41;1.73;;;1.13;;
13067;SDS011;6600;51.362;6.686;2022-09-01T13:28:08;3.30;;;2.07;;
13067;SDS011;6600;51.362;6.686;2022-09-01T13:30:35;2.43;;;1.33;;
13067;SDS011;6600;51.362;6.686;2022-09-01T13:33:01;1.10;;;1.10;;
13067;SDS011;6600;51.362;6.686;2022-09-01T13:35:26;0.83;;;0.80;;
13067;SDS011;6600;51.362;6.686;2022-09-01T13:37:52;0.90;;;0.90;;
13067;SDS011;6600;51.362;6.686;2022-09-01T13:40:17;0.60;;;0.60;;
13067;SDS011;6600;51.362;6.686;2022-09-01T13:42:45;0.67;;;0.67;;
13067;SDS011;6600;51.362;6.686;2022-09-01T13:45:13;1.43;;;1.10;;
13067;SDS011;6600;51.362;6.686;2022-09-01T13:47:40;1.17;;;0.90;;
13067;SDS011;6600;51.362;6.686;2022-09-01T13:50:07;1.23;;;1.07;;
13067;SDS011;6600;51.362;6.686;2022-09-01T13:52:35;1.13;;;0.63;;
13067;SDS011;6600;51.362;6.686;2022-09-01T13:55:02;0.70;;;0.70;;
13067;SDS011;6600;51.362;6.686;2022-09-01T13:57:29;0.80;;;0.80;;
13067;SDS011;6600;51.362;6.686;2022-09-01T13:59:54;1.57;;;1.10;;
13067;SDS011;6600;51.362;6.686;2022-09-01T14:02:22;0.97;;;0.97;;
13067;SDS011;6600;51.362;6.686;2022-09-01T14:04:48;1.07;;;0.97;;
13067;SDS011;6600;51.362;6.686;2022-09-01T14:07:13;1.37;;;1.27;;
13067;SDS011;6600;51.362;6.686;2022-09-01T14:09:40;0.70;;;0.70;;
13067;SDS011;6600;51.362;6.686;2022-09-01T14:12:05;0.83;;;0.83;;
13067;SDS011;6600;51.362;6.686;2022-09-01T14:14:32;0.97;;;0.87;;
13067;SDS011;6600;51.362;6.686;2022-09-01T14:16:57;3.33;;;2.20;;
13067;SDS011;6600;51.362;6.686;2022-09-01T14:19:22;1.47;;;1.10;;
13067;SDS011;6600;51.362;6.686;2022-09-01T14:21:48;0.80;;;0.80;;
13067;SDS011;6600;51.362;6.686;2022-09-01T14:24:14;0.90;;;0.90;;
13067;SDS011;6600;51.362;6.686;2022-09-01T14:26:45;0.90;;;0.90;;
13067;SDS011;6600;51.362;6.686;2022-09-01T14:29:11;0.70;;;0.70;;
13067;SDS011;6600;51.362;6.686;2022-09-01T14:31:36;0.80;;;0.80;;
13067;SDS011;6600;51.362;6.686;2022-09-01T14:34:02;0.73;;;0.60;;
13067;SDS011;6600;51.362;6.686;2022-09-01T14:36:28;1.10;;;1.10;;
13067;SDS011;6600;51.362;6.686;2022-09-01T14:38:53;1.30;;;1.20;;
13067;SDS011;6600;51.362;6.686;2022-09-01T14:41:19;1.40;;;1.30;;
13067;SDS011;6600;51.362;6.686;2022-09-01T14:43:47;1.37;;;1.27;;
13067;SDS011;6600;51.362;6.686;2022-09-01T14:46:14;0.93;;;0.93;;
13067;SDS011;6600;51.362;6.686;2022-09-01T14:48:40;1.37;;;1.27;;
13067;SDS011;6600;51.362;6.686;2022-09-01T14:51:07;1.80;;;1.50;;
13067;SDS011;6600;51.362;6.686;2022-09-01T14:53:33;0.80;;;0.80;;
13067;SDS011;6600;51.362;6.686;2022-09-01T14:55:59;0.80;;;0.80;;
13067;SDS011;6600;51.362;6.686;2022-09-01T14:58:26;0.60;;;0.60;;
13067;SDS011;6600;51.362;6.686;2022-09-01T15:00:53;0.93;;;0.87;;
13067;SDS011;6600;51.362;6.686;2022-09-01T15:03:21;1.03;;;1.00;;
13067;SDS011;6600;51.362;6.686;2022-09-01T15:05:47;1.00;;;1.00;;
13067;SDS011;6600;51.362;6.686;2022-09-01T15:08:13;1.30;;;1.20;;
13067;SDS011;6600;51.362;6.686;2022-09-01T15:10:38;0.97;;;0.97;;
13067;SDS011;6600;51.362;6.686;2022-09-01T15:13:04;1.40;;;1.30;;
13067;SDS011;6600;51.362;6.686;2022-09-01T15:15:30;1.23;;;1.10;;
13067;SDS011;6600;51.362;6.686;2022-09-01T15:17:55;0.70;;;0.70;;
13067;SDS011;6600;51.362;6.686;2022-09-01T15:20:22;0.87;;;0.80;;
13067;SDS011;6600;51.362;6.686;2022-09-01T15:23:07;2.43;;;2.20;;
13067;SDS011;6600;51.362;6.686;2022-09-01T15:25:33;3.33;;;1.93;;
13067;SDS011;6600;51.362;6.686;2022-09-01T15:27:58;1.57;;;1.37;;
13067;SDS011;6600;51.362;6.686;2022-09-01T15:30:23;1.00;;;1.00;;
13067;SDS011;6600;51.362;6.686;2022-09-01T15:32:50;1.80;;;0.80;;
13067;SDS011;6600;51.362;6.686;2022-09-01T15:35:18;0.80;;;0.80;;
13067;SDS011;6600;51.362;6.686;2022-09-01T15:37:45;0.80;;;0.70;;
13067;SDS011;6600;51.362;6.686;2022-09-01T15:40:12;1.87;;;1.40;;
13067;SDS011;6600;51.362;6.686;2022-09-01T15:42:38;2.40;;;1.40;;
13067;SDS011;6600;51.362;6.686;2022-09-01T15:45:06;0.90;;;0.90;;
13067;SDS011;6600;51.362;6.686;2022-09-01T15:47:34;1.33;;;1.00;;
13067;SDS011;6600;51.362;6.686;2022-09-01T15:50:01;0.80;;;0.80;;
13067;SDS011;6600;51.362;6.686;2022-09-01T15:52:29;0.60;;;0.60;;
13067;SDS011;6600;51.362;6.686;2022-09-01T15:54:54;1.00;;;0.80;;
13067;SDS011;6600;51.362;6.686;2022-09-01T15:57:25;0.77;;;0.77;;
13067;SDS011;6600;51.362;6.686;2022-09-01T16:00:28;1.03;;;0.50;;
13067;SDS011;6600;51.362;6.686;2022-09-01T16:02:54;0.70;;;0.60;;
13067;SDS011;6600;51.362;6.686;2022-09-01T16:05:21;0.80;;;0.80;;
13067;SDS011;6600;51.362;6.686;2022-09-01T16:07:48;0.70;;;0.67;;
13067;SDS011;6600;51.362;6.686;2022-09-01T16:10:14;0.70;;;0.70;;
13067;SDS011;6600;51.362;6.686;2022-09-01T16:12:40;0.70;;;0.70;;
13067;SDS011;6600;51.362;6.686;2022-09-01T16:15:08;0.90;;;0.90;;
13067;SDS011;6600;51.362;6.686;2022-09-01T16:17:46;2.50;;;1.63;;
13067;SDS011;6600;51.362;6.686;2022-09-01T16:20:27;1.80;;;1.00;;
13067;SDS011;6600;51.362;6.686;2022-09-01T16:23:14;2.00;;;1.03;;
13067;SDS011;6600;51.362;6.686;2022-09-01T16:25:42;1.17;;;0.93;;
13067;SDS011;6600;51.362;6.686;2022-09-01T16:30:51;1.93;;;1.67;;